sensor_id;sensor_type;location;lat;lon;timestamp;temperature;humidity
8459;DHT22;4266;48.816;9.154;2022-12-18T00:01:16;-8.90;99.20
8459;DHT22;4266;48.816;9.154;2022-12-18T00:03:41;-9.00;99.00
8459;DHT22;4266;48.816;9.154;2022-12-18T00:06:07;-9.00;98.70
8459;DHT22;4266;48.816;9.154;2022-12-18T00:08:32;-8.90;98.70
8459;DHT22;4266;48.816;9.154;2022-12-18T00:11:05;-9.00;98.40
8459;DHT22;4266;48.816;9.154;2022-12-18T00:13:31;-9.10;98.20
8459;DHT22;4266;48.816;9.154;2022-12-18T00:16:04;-9.10;98.10
8459;DHT22;4266;48.816;9.154;2022-12-18T00:18:29;-9.10;97.60
8459;DHT22;4266;48.816;9.154;2022-12-18T00:20:58;-9.00;99.20
8459;DHT22;4266;48.816;9.154;2022-12-18T00:23:21;-9.00;99.20
8459;DHT22;4266;48.816;9.154;2022-12-18T00:25:47;-8.90;99.90
8459;DHT22;4266;48.816;9.154;2022-12-18T00:28:13;-9.00;99.90
8459;DHT22;4266;48.816;9.154;2022-12-18T00:30:38;-9.00;99.10
8459;DHT22;4266;48.816;9.154;2022-12-18T00:33:04;-9.00;99.00
8459;DHT22;4266;48.816;9.154;2022-12-18T00:35:31;-8.90;99.90
8459;DHT22;4266;48.816;9.154;2022-12-18T00:37:56;-9.00;99.90
8459;DHT22;4266;48.816;9.154;2022-12-18T00:40:22;-9.00;99.60
8459;DHT22;4266;48.816;9.154;2022-12-18T00:42:48;-9.00;99.50
8459;DHT22;4266;48.816;9.154;2022-12-18T00:45:21;-9.00;99.50
8459;DHT22;4266;48.816;9.154;2022-12-18T00:47:46;-9.00;99.40
8459;DHT22;4266;48.816;9.154;2022-12-18T00:50:13;-8.90;99.50
8459;DHT22;4266;48.816;9.154;2022-12-18T00:52:40;-8.90;99.10
8459;DHT22;4266;48.816;9.154;2022-12-18T00:55:06;-8.90;99.10
8459;DHT22;4266;48.816;9.154;2022-12-18T00:57:32;-8.90;99.90
8459;DHT22;4266;48.816;9.154;2022-12-18T00:59:58;-8.90;99.90
8459;DHT22;4266;48.816;9.154;2022-12-18T01:02:24;-9.00;99.80
8459;DHT22;4266;48.816;9.154;2022-12-18T01:04:49;-9.00;99.80
8459;DHT22;4266;48.816;9.154;2022-12-18T01:07:15;-9.00;99.90
8459;DHT22;4266;48.816;9.154;2022-12-18T01:09:42;-9.00;99.90
8459;DHT22;4266;48.816;9.154;2022-12-18T01:12:08;-9.10;99.90
8459;DHT22;4266;48.816;9.154;2022-12-18T01:14:33;-9.00;99.90
8459;DHT22;4266;48.816;9.154;2022-12-18T01:17:00;-9.10;99.90
8459;DHT22;4266;48.816;9.154;2022-12-18T01:19:26;-9.10;99.90
8459;DHT22;4266;48.816;9.154;2022-12-18T01:21:51;-9.10;99.80
8459;DHT22;4266;48.816;9.154;2022-12-18T01:24:18;-9.10;99.50
8459;DHT22;4266;48.816;9.154;2022-12-18T01:26:43;-9.20;99.50
8459;DHT22;4266;48.816;9.154;2022-12-18T01:29:09;-9.20;99.10
8459;DHT22;4266;48.816;9.154;2022-12-18T01:31:36;-9.40;98.70
8459;DHT22;4266;48.816;9.154;2022-12-18T01:34:02;-9.40;98.70
8459;DHT22;4266;48.816;9.154;2022-12-18T01:36:28;-9.50;98.20
8459;DHT22;4266;48.816;9.154;2022-12-18T01:38:54;-9.40;98.90
8459;DHT22;4266;48.816;9.154;2022-12-18T01:41:21;-9.40;98.90
8459;DHT22;4266;48.816;9.154;2022-12-18T01:43:50;-9.40;99.00
8459;DHT22;4266;48.816;9.154;2022-12-18T01:46:14;-9.30;99.90
8459;DHT22;4266;48.816;9.154;2022-12-18T01:48:40;-9.30;99.90
8459;DHT22;4266;48.816;9.154;2022-12-18T01:51:05;-9.20;99.80
8459;DHT22;4266;48.816;9.154;2022-12-18T01:53:31;-9.30;99.00
8459;DHT22;4266;48.816;9.154;2022-12-18T01:55:56;-9.20;99.90
8459;DHT22;4266;48.816;9.154;2022-12-18T01:58:24;-9.30;99.90
8459;DHT22;4266;48.816;9.154;2022-12-18T02:00:49;-9.20;99.90
8459;DHT22;4266;48.816;9.154;2022-12-18T02:03:14;-9.20;99.90
8459;DHT22;4266;48.816;9.154;2022-12-18T02:05:52;-9.20;99.90
8459;DHT22;4266;48.816;9.154;2022-12-18T02:08:40;-9.20;99.90
8459;DHT22;4266;48.816;9.154;2022-12-18T02:11:09;-9.10;99.90
8459;DHT22;4266;48.816;9.154;2022-12-18T02:14:23;-9.00;99.90
8459;DHT22;4266;48.816;9.154;2022-12-18T02:16:51;-9.00;99.90
8459;DHT22;4266;48.816;9.154;2022-12-18T02:19:19;-9.00;99.90
8459;DHT22;4266;48.816;9.154;2022-12-18T02:21:54;-8.90;99.90
8459;DHT22;4266;48.816;9.154;2022-12-18T02:24:23;-8.90;99.90
8459;DHT22;4266;48.816;9.154;2022-12-18T02:26:46;-8.80;99.90
8459;DHT22;4266;48.816;9.154;2022-12-18T02:29:11;-8.80;99.90
8459;DHT22;4266;48.816;9.154;2022-12-18T02:31:36;-8.70;99.90
8459;DHT22;4266;48.816;9.154;2022-12-18T02:34:02;-8.70;99.90
8459;DHT22;4266;48.816;9.154;2022-12-18T02:36:27;-8.70;99.90
8459;DHT22;4266;48.816;9.154;2022-12-18T02:38:52;-8.70;99.90
8459;DHT22;4266;48.816;9.154;2022-12-18T02:41:18;-8.70;99.90
8459;DHT22;4266;48.816;9.154;2022-12-18T02:43:48;-8.60;99.90
8459;DHT22;4266;48.816;9.154;2022-12-18T02:46:39;-8.70;99.90
8459;DHT22;4266;48.816;9.154;2022-12-18T02:49:06;-8.70;99.90
8459;DHT22;4266;48.816;9.154;2022-12-18T02:51:33;-8.70;99.90
8459;DHT22;4266;48.816;9.154;2022-12-18T02:54:06;-8.70;99.90
8459;DHT22;4266;48.816;9.154;2022-12-18T02:56:37;-8.70;99.90
8459;DHT22;4266;48.816;9.154;2022-12-18T02:59:04;-8.80;99.90
8459;DHT22;4266;48.816;9.154;2022-12-18T03:04:27;-8.80;99.90
8459;DHT22;4266;48.816;9.154;2022-12-18T03:06:54;-8.70;99.90
8459;DHT22;4266;48.816;9.154;2022-12-18T03:09:24;-8.80;99.90
8459;DHT22;4266;48.816;9.154;2022-12-18T03:11:50;-8.70;99.90
8459;DHT22;4266;48.816;9.154;2022-12-18T03:14:20;-8.80;99.90
8459;DHT22;4266;48.816;9.154;2022-12-18T03:16:47;-8.80;99.90
8459;DHT22;4266;48.816;9.154;2022-12-18T03:19:14;-8.80;99.90
8459;DHT22;4266;48.816;9.154;2022-12-18T03:21:45;-8.80;99.90
8459;DHT22;4266;48.816;9.154;2022-12-18T03:24:09;-8.80;99.90
8459;DHT22;4266;48.816;9.154;2022-12-18T03:26:35;-8.90;99.90
8459;DHT22;4266;48.816;9.154;2022-12-18T03:29:03;-8.70;99.90
8459;DHT22;4266;48.816;9.154;2022-12-18T03:31:27;-8.70;99.90
8459;DHT22;4266;48.816;9.154;2022-12-18T03:33:54;-8.80;99.90
8459;DHT22;4266;48.816;9.154;2022-12-18T03:36:19;-8.70;99.90
8459;DHT22;4266;48.816;9.154;2022-12-18T03:38:44;-8.80;99.90
8459;DHT22;4266;48.816;9.154;2022-12-18T03:41:19;-8.90;99.90
8459;DHT22;4266;48.816;9.154;2022-12-18T03:43:51;-8.80;99.90
8459;DHT22;4266;48.816;9.154;2022-12-18T03:47:27;-8.90;99.90
8459;DHT22;4266;48.816;9.154;2022-12-18T03:49:05;-9.00;99.90
8459;DHT22;4266;48.816;9.154;2022-12-18T03:51:36;-8.90;99.90
8459;DHT22;4266;48.816;9.154;2022-12-18T03:53:59;-8.90;99.90
8459;DHT22;4266;48.816;9.154;2022-12-18T03:56:25;-9.00;99.90
8459;DHT22;4266;48.816;9.154;2022-12-18T03:58:49;-9.10;99.90
8459;DHT22;4266;48.816;9.154;2022-12-18T04:01:15;-9.10;99.90
8459;DHT22;4266;48.816;9.154;2022-12-18T04:03:41;-9.10;99.90
8459;DHT22;4266;48.816;9.154;2022-12-18T04:06:07;-9.10;99.90
8459;DHT22;4266;48.816;9.154;2022-12-18T04:08:33;-9.10;99.90
8459;DHT22;4266;48.816;9.154;2022-12-18T04:10:59;-9.20;99.90
8459;DHT22;4266;48.816;9.154;2022-12-18T04:13:28;-9.20;99.90
8459;DHT22;4266;48.816;9.154;2022-12-18T04:15:53;-9.20;99.90
8459;DHT22;4266;48.816;9.154;2022-12-18T04:18:19;-9.20;99.90
8459;DHT22;4266;48.816;9.154;2022-12-18T04:20:46;-9.20;99.90
8459;DHT22;4266;48.816;9.154;2022-12-18T04:23:11;-9.20;99.90
8459;DHT22;4266;48.816;9.154;2022-12-18T04:25:37;-9.20;99.90
8459;DHT22;4266;48.816;9.154;2022-12-18T04:28:03;-9.20;99.90
8459;DHT22;4266;48.816;9.154;2022-12-18T04:30:29;-9.30;99.90
8459;DHT22;4266;48.816;9.154;2022-12-18T04:32:55;-9.30;99.90
8459;DHT22;4266;48.816;9.154;2022-12-18T04:35:21;-9.20;99.90
8459;DHT22;4266;48.816;9.154;2022-12-18T04:37:46;-9.20;99.90
8459;DHT22;4266;48.816;9.154;2022-12-18T04:40:12;-9.20;99.90
8459;DHT22;4266;48.816;9.154;2022-12-18T04:42:38;-9.10;99.90
8459;DHT22;4266;48.816;9.154;2022-12-18T04:45:04;-9.00;99.90
8459;DHT22;4266;48.816;9.154;2022-12-18T04:47:30;-8.80;99.90
8459;DHT22;4266;48.816;9.154;2022-12-18T04:49:56;-8.80;99.90
8459;DHT22;4266;48.816;9.154;2022-12-18T04:52:22;-8.80;99.70
8459;DHT22;4266;48.816;9.154;2022-12-18T04:54:48;-8.80;99.90
8459;DHT22;4266;48.816;9.154;2022-12-18T04:57:13;-8.70;99.60
8459;DHT22;4266;48.816;9.154;2022-12-18T04:59:39;-8.70;99.20
8459;DHT22;4266;48.816;9.154;2022-12-18T05:02:05;-8.70;98.90
8459;DHT22;4266;48.816;9.154;2022-12-18T05:04:31;-8.80;98.50
8459;DHT22;4266;48.816;9.154;2022-12-18T05:06:56;-8.70;98.70
8459;DHT22;4266;48.816;9.154;2022-12-18T05:09:22;-8.60;98.20
8459;DHT22;4266;48.816;9.154;2022-12-18T05:11:48;-8.60;97.70
8459;DHT22;4266;48.816;9.154;2022-12-18T05:14:13;-8.70;96.90
8459;DHT22;4266;48.816;9.154;2022-12-18T05:16:39;-8.90;97.00
8459;DHT22;4266;48.816;9.154;2022-12-18T05:19:05;-8.90;97.70
8459;DHT22;4266;48.816;9.154;2022-12-18T05:21:31;-8.90;98.40
8459;DHT22;4266;48.816;9.154;2022-12-18T05:23:56;-8.90;98.60
8459;DHT22;4266;48.816;9.154;2022-12-18T05:26:23;-9.00;99.20
8459;DHT22;4266;48.816;9.154;2022-12-18T05:28:49;-9.00;99.20
8459;DHT22;4266;48.816;9.154;2022-12-18T05:31:14;-9.00;99.10
8459;DHT22;4266;48.816;9.154;2022-12-18T05:33:40;-9.00;99.10
8459;DHT22;4266;48.816;9.154;2022-12-18T05:36:07;-9.00;99.30
8459;DHT22;4266;48.816;9.154;2022-12-18T05:38:35;-8.90;99.50
8459;DHT22;4266;48.816;9.154;2022-12-18T05:40:59;-9.00;99.50
8459;DHT22;4266;48.816;9.154;2022-12-18T05:43:25;-8.90;99.50
8459;DHT22;4266;48.816;9.154;2022-12-18T05:45:51;-8.90;99.30
8459;DHT22;4266;48.816;9.154;2022-12-18T05:48:17;-8.90;99.50
8459;DHT22;4266;48.816;9.154;2022-12-18T05:50:43;-8.90;99.40
8459;DHT22;4266;48.816;9.154;2022-12-18T05:53:08;-8.80;99.00
8459;DHT22;4266;48.816;9.154;2022-12-18T05:55:35;-8.90;98.70
8459;DHT22;4266;48.816;9.154;2022-12-18T05:58:01;-9.00;98.20
8459;DHT22;4266;48.816;9.154;2022-12-18T06:00:26;-8.90;98.10
8459;DHT22;4266;48.816;9.154;2022-12-18T06:02:52;-8.90;97.60
8459;DHT22;4266;48.816;9.154;2022-12-18T06:05:17;-8.90;97.20
8459;DHT22;4266;48.816;9.154;2022-12-18T06:07:43;-8.90;97.10
8459;DHT22;4266;48.816;9.154;2022-12-18T06:10:09;-8.90;96.70
8459;DHT22;4266;48.816;9.154;2022-12-18T06:12:35;-8.80;96.50
8459;DHT22;4266;48.816;9.154;2022-12-18T06:15:00;-8.90;96.10
8459;DHT22;4266;48.816;9.154;2022-12-18T06:17:28;-8.80;96.40
8459;DHT22;4266;48.816;9.154;2022-12-18T06:19:52;-8.80;96.00
8459;DHT22;4266;48.816;9.154;2022-12-18T06:22:19;-8.90;95.70
8459;DHT22;4266;48.816;9.154;2022-12-18T06:24:45;-9.10;94.90
8459;DHT22;4266;48.816;9.154;2022-12-18T06:27:12;-9.00;96.60
8459;DHT22;4266;48.816;9.154;2022-12-18T06:29:38;-9.10;96.60
8459;DHT22;4266;48.816;9.154;2022-12-18T06:32:04;-9.10;96.40
8459;DHT22;4266;48.816;9.154;2022-12-18T06:34:30;-9.00;96.60
8459;DHT22;4266;48.816;9.154;2022-12-18T06:36:55;-9.10;96.30
8459;DHT22;4266;48.816;9.154;2022-12-18T06:39:21;-9.10;96.30
8459;DHT22;4266;48.816;9.154;2022-12-18T06:41:47;-9.10;96.20
8459;DHT22;4266;48.816;9.154;2022-12-18T06:44:12;-9.20;96.10
8459;DHT22;4266;48.816;9.154;2022-12-18T06:46:39;-9.30;95.40
8459;DHT22;4266;48.816;9.154;2022-12-18T06:49:05;-9.30;95.40
8459;DHT22;4266;48.816;9.154;2022-12-18T06:51:30;-9.20;95.70
8459;DHT22;4266;48.816;9.154;2022-12-18T06:53:57;-9.20;95.40
8459;DHT22;4266;48.816;9.154;2022-12-18T06:56:23;-9.20;95.40
8459;DHT22;4266;48.816;9.154;2022-12-18T06:58:50;-9.20;95.10
8459;DHT22;4266;48.816;9.154;2022-12-18T07:01:16;-9.20;95.20
8459;DHT22;4266;48.816;9.154;2022-12-18T07:03:42;-9.20;95.20
8459;DHT22;4266;48.816;9.154;2022-12-18T07:06:13;-9.10;95.40
8459;DHT22;4266;48.816;9.154;2022-12-18T07:08:38;-9.10;95.20
8459;DHT22;4266;48.816;9.154;2022-12-18T07:11:04;-9.10;95.10
8459;DHT22;4266;48.816;9.154;2022-12-18T07:13:29;-9.20;94.80
8459;DHT22;4266;48.816;9.154;2022-12-18T07:15:55;-9.10;95.00
8459;DHT22;4266;48.816;9.154;2022-12-18T07:18:21;-9.10;95.00
8459;DHT22;4266;48.816;9.154;2022-12-18T07:20:47;-9.10;95.30
8459;DHT22;4266;48.816;9.154;2022-12-18T07:23:12;-9.10;95.00
8459;DHT22;4266;48.816;9.154;2022-12-18T07:25:39;-8.90;94.90
8459;DHT22;4266;48.816;9.154;2022-12-18T07:28:04;-8.90;94.90
8459;DHT22;4266;48.816;9.154;2022-12-18T07:30:30;-8.90;94.60
8459;DHT22;4266;48.816;9.154;2022-12-18T07:32:56;-8.80;94.40
8459;DHT22;4266;48.816;9.154;2022-12-18T07:35:22;-8.70;94.30
8459;DHT22;4266;48.816;9.154;2022-12-18T07:37:47;-8.60;94.40
8459;DHT22;4266;48.816;9.154;2022-12-18T07:40:14;-8.30;95.10
8459;DHT22;4266;48.816;9.154;2022-12-18T07:42:40;-8.30;93.90
8459;DHT22;4266;48.816;9.154;2022-12-18T07:45:08;-8.20;93.20
8459;DHT22;4266;48.816;9.154;2022-12-18T07:47:34;-8.20;93.20
8459;DHT22;4266;48.816;9.154;2022-12-18T07:50:02;-8.10;92.80
8459;DHT22;4266;48.816;9.154;2022-12-18T07:52:27;-8.10;92.80
8459;DHT22;4266;48.816;9.154;2022-12-18T07:54:52;-7.40;92.50
8459;DHT22;4266;48.816;9.154;2022-12-18T07:57:18;-6.40;90.60
8459;DHT22;4266;48.816;9.154;2022-12-18T07:59:45;-5.00;84.40
8459;DHT22;4266;48.816;9.154;2022-12-18T08:02:11;-5.00;83.20
8459;DHT22;4266;48.816;9.154;2022-12-18T08:04:38;-5.10;84.20
8459;DHT22;4266;48.816;9.154;2022-12-18T08:07:03;-5.10;84.10
8459;DHT22;4266;48.816;9.154;2022-12-18T08:09:29;-4.30;83.60
8459;DHT22;4266;48.816;9.154;2022-12-18T08:11:55;-4.30;84.50
8459;DHT22;4266;48.816;9.154;2022-12-18T08:14:20;-3.80;83.40
8459;DHT22;4266;48.816;9.154;2022-12-18T08:16:46;-3.60;83.00
8459;DHT22;4266;48.816;9.154;2022-12-18T08:19:12;-3.30;80.20
8459;DHT22;4266;48.816;9.154;2022-12-18T08:21:40;-2.80;79.40
8459;DHT22;4266;48.816;9.154;2022-12-18T08:24:07;-2.10;78.30
8459;DHT22;4266;48.816;9.154;2022-12-18T08:26:32;-2.00;75.50
8459;DHT22;4266;48.816;9.154;2022-12-18T08:28:59;-1.70;75.40
8459;DHT22;4266;48.816;9.154;2022-12-18T08:31:24;-1.10;75.60
8459;DHT22;4266;48.816;9.154;2022-12-18T08:33:50;-0.50;73.60
8459;DHT22;4266;48.816;9.154;2022-12-18T08:36:15;-0.30;72.40
8459;DHT22;4266;48.816;9.154;2022-12-18T08:38:41;-0.10;71.80
8459;DHT22;4266;48.816;9.154;2022-12-18T08:41:07;0.20;70.00
8459;DHT22;4266;48.816;9.154;2022-12-18T08:43:32;0.30;70.30
8459;DHT22;4266;48.816;9.154;2022-12-18T08:46:04;0.60;68.70
8459;DHT22;4266;48.816;9.154;2022-12-18T08:48:30;1.30;65.90
8459;DHT22;4266;48.816;9.154;2022-12-18T08:50:57;1.00;65.90
8459;DHT22;4266;48.816;9.154;2022-12-18T08:53:23;1.90;66.10
8459;DHT22;4266;48.816;9.154;2022-12-18T08:55:48;1.80;64.60
8459;DHT22;4266;48.816;9.154;2022-12-18T08:58:14;1.20;67.20
8459;DHT22;4266;48.816;9.154;2022-12-18T09:00:40;1.20;67.10
8459;DHT22;4266;48.816;9.154;2022-12-18T09:03:10;1.70;64.60
8459;DHT22;4266;48.816;9.154;2022-12-18T09:05:32;2.40;66.40
8459;DHT22;4266;48.816;9.154;2022-12-18T09:07:57;2.00;66.20
8459;DHT22;4266;48.816;9.154;2022-12-18T09:10:23;2.20;63.90
8459;DHT22;4266;48.816;9.154;2022-12-18T09:12:49;3.20;63.70
8459;DHT22;4266;48.816;9.154;2022-12-18T09:15:14;2.60;62.40
8459;DHT22;4266;48.816;9.154;2022-12-18T09:17:40;3.10;61.40
8459;DHT22;4266;48.816;9.154;2022-12-18T09:20:07;3.50;60.70
8459;DHT22;4266;48.816;9.154;2022-12-18T09:22:34;3.20;60.30
8459;DHT22;4266;48.816;9.154;2022-12-18T09:24:59;3.00;59.70
8459;DHT22;4266;48.816;9.154;2022-12-18T09:27:25;3.60;59.10
8459;DHT22;4266;48.816;9.154;2022-12-18T09:29:51;3.60;59.00
8459;DHT22;4266;48.816;9.154;2022-12-18T09:32:17;4.20;57.10
8459;DHT22;4266;48.816;9.154;2022-12-18T09:34:42;4.20;56.90
8459;DHT22;4266;48.816;9.154;2022-12-18T09:37:08;4.00;56.50
8459;DHT22;4266;48.816;9.154;2022-12-18T09:39:35;3.90;55.70
8459;DHT22;4266;48.816;9.154;2022-12-18T09:42:00;3.90;55.60
8459;DHT22;4266;48.816;9.154;2022-12-18T09:44:30;4.30;56.20
8459;DHT22;4266;48.816;9.154;2022-12-18T09:47:26;5.00;55.20
8459;DHT22;4266;48.816;9.154;2022-12-18T09:49:55;4.50;54.10
8459;DHT22;4266;48.816;9.154;2022-12-18T09:52:37;5.10;54.60
8459;DHT22;4266;48.816;9.154;2022-12-18T09:55:38;4.60;54.90
8459;DHT22;4266;48.816;9.154;2022-12-18T09:57:49;4.80;54.40
8459;DHT22;4266;48.816;9.154;2022-12-18T10:00:18;4.80;54.40
8459;DHT22;4266;48.816;9.154;2022-12-18T10:02:42;5.70;53.40
8459;DHT22;4266;48.816;9.154;2022-12-18T10:05:11;5.10;52.90
8459;DHT22;4266;48.816;9.154;2022-12-18T10:07:46;5.70;54.10
8459;DHT22;4266;48.816;9.154;2022-12-18T10:10:14;6.70;53.40
8459;DHT22;4266;48.816;9.154;2022-12-18T10:12:42;6.50;52.40
8459;DHT22;4266;48.816;9.154;2022-12-18T10:15:07;6.50;52.30
8459;DHT22;4266;48.816;9.154;2022-12-18T10:17:51;6.20;51.70
8459;DHT22;4266;48.816;9.154;2022-12-18T10:20:17;5.20;52.00
8459;DHT22;4266;48.816;9.154;2022-12-18T10:22:50;5.10;51.90
8459;DHT22;4266;48.816;9.154;2022-12-18T10:25:23;5.90;51.80
8459;DHT22;4266;48.816;9.154;2022-12-18T10:27:47;6.20;52.30
8459;DHT22;4266;48.816;9.154;2022-12-18T10:30:15;6.10;51.70
8459;DHT22;4266;48.816;9.154;2022-12-18T10:32:39;7.30;52.00
8459;DHT22;4266;48.816;9.154;2022-12-18T10:35:07;7.00;50.80
8459;DHT22;4266;48.816;9.154;2022-12-18T10:37:31;6.90;51.00
8459;DHT22;4266;48.816;9.154;2022-12-18T10:40:11;7.40;51.80
8459;DHT22;4266;48.816;9.154;2022-12-18T10:42:35;6.60;50.80
8459;DHT22;4266;48.816;9.154;2022-12-18T10:45:02;7.90;51.30
8459;DHT22;4266;48.816;9.154;2022-12-18T10:47:27;7.50;49.80
8459;DHT22;4266;48.816;9.154;2022-12-18T10:49:52;7.00;50.90
8459;DHT22;4266;48.816;9.154;2022-12-18T10:52:21;6.20;50.10
8459;DHT22;4266;48.816;9.154;2022-12-18T10:55:03;6.70;50.80
8459;DHT22;4266;48.816;9.154;2022-12-18T10:57:31;7.00;50.70
8459;DHT22;4266;48.816;9.154;2022-12-18T10:59:56;5.40;50.00
8459;DHT22;4266;48.816;9.154;2022-12-18T11:04:58;6.60;50.60
8459;DHT22;4266;48.816;9.154;2022-12-18T11:07:24;7.70;50.30
8459;DHT22;4266;48.816;9.154;2022-12-18T11:12:22;7.60;49.90
8459;DHT22;4266;48.816;9.154;2022-12-18T11:14:49;7.40;49.80
8459;DHT22;4266;48.816;9.154;2022-12-18T11:17:19;8.10;49.70
8459;DHT22;4266;48.816;9.154;2022-12-18T11:19:44;7.80;49.50
8459;DHT22;4266;48.816;9.154;2022-12-18T11:22:18;7.80;49.40
8459;DHT22;4266;48.816;9.154;2022-12-18T11:24:42;8.00;49.70
8459;DHT22;4266;48.816;9.154;2022-12-18T11:27:15;8.00;49.30
8459;DHT22;4266;48.816;9.154;2022-12-18T11:29:40;8.80;49.30
8459;DHT22;4266;48.816;9.154;2022-12-18T11:34:58;8.10;49.50
8459;DHT22;4266;48.816;9.154;2022-12-18T11:37:22;8.60;49.40
8459;DHT22;4266;48.816;9.154;2022-12-18T11:39:51;8.60;48.70
8459;DHT22;4266;48.816;9.154;2022-12-18T11:42:20;8.00;48.60
8459;DHT22;4266;48.816;9.154;2022-12-18T11:44:51;7.80;48.90
8459;DHT22;4266;48.816;9.154;2022-12-18T11:47:34;7.20;48.60
8459;DHT22;4266;48.816;9.154;2022-12-18T11:50:01;7.30;48.90
8459;DHT22;4266;48.816;9.154;2022-12-18T11:52:31;6.60;49.70
8459;DHT22;4266;48.816;9.154;2022-12-18T11:54:55;6.60;49.70
8459;DHT22;4266;48.816;9.154;2022-12-18T11:57:31;6.50;49.20
8459;DHT22;4266;48.816;9.154;2022-12-18T12:02:42;6.60;49.30
8459;DHT22;4266;48.816;9.154;2022-12-18T12:05:40;6.10;49.50
8459;DHT22;4266;48.816;9.154;2022-12-18T12:11:21;5.40;49.50
8459;DHT22;4266;48.816;9.154;2022-12-18T12:16:48;5.10;50.20
8459;DHT22;4266;48.816;9.154;2022-12-18T12:19:56;4.60;50.30
8459;DHT22;4266;48.816;9.154;2022-12-18T12:22:10;4.10;50.30
8459;DHT22;4266;48.816;9.154;2022-12-18T12:24:44;4.20;50.80
8459;DHT22;4266;48.816;9.154;2022-12-18T12:27:13;4.40;51.30
8459;DHT22;4266;48.816;9.154;2022-12-18T12:29:57;3.90;50.90
8459;DHT22;4266;48.816;9.154;2022-12-18T12:32:28;3.40;51.00
8459;DHT22;4266;48.816;9.154;2022-12-18T12:35:15;3.00;51.70
8459;DHT22;4266;48.816;9.154;2022-12-18T12:37:51;3.10;52.20
8459;DHT22;4266;48.816;9.154;2022-12-18T12:40:18;2.70;52.20
8459;DHT22;4266;48.816;9.154;2022-12-18T12:42:46;2.60;52.30
8459;DHT22;4266;48.816;9.154;2022-12-18T12:45:18;2.60;52.50
8459;DHT22;4266;48.816;9.154;2022-12-18T12:47:42;2.40;52.90
8459;DHT22;4266;48.816;9.154;2022-12-18T12:50:12;2.20;53.10
8459;DHT22;4266;48.816;9.154;2022-12-18T12:52:35;2.40;53.00
8459;DHT22;4266;48.816;9.154;2022-12-18T12:55:00;2.00;53.30
8459;DHT22;4266;48.816;9.154;2022-12-18T12:57:37;2.00;53.00
8459;DHT22;4266;48.816;9.154;2022-12-18T13:00:10;1.80;53.70
8459;DHT22;4266;48.816;9.154;2022-12-18T13:02:44;1.80;53.70
8459;DHT22;4266;48.816;9.154;2022-12-18T13:05:18;1.80;54.10
8459;DHT22;4266;48.816;9.154;2022-12-18T13:07:45;1.80;53.90
8459;DHT22;4266;48.816;9.154;2022-12-18T13:10:25;1.80;54.20
8459;DHT22;4266;48.816;9.154;2022-12-18T13:12:52;2.20;54.70
8459;DHT22;4266;48.816;9.154;2022-12-18T13:15:33;2.30;54.60
8459;DHT22;4266;48.816;9.154;2022-12-18T13:18:23;2.20;54.60
8459;DHT22;4266;48.816;9.154;2022-12-18T13:20:49;2.20;54.60
8459;DHT22;4266;48.816;9.154;2022-12-18T13:23:27;1.80;55.00
8459;DHT22;4266;48.816;9.154;2022-12-18T13:25:57;2.20;54.70
8459;DHT22;4266;48.816;9.154;2022-12-18T13:31:04;1.70;54.60
8459;DHT22;4266;48.816;9.154;2022-12-18T13:33:37;2.00;55.00
8459;DHT22;4266;48.816;9.154;2022-12-18T13:36:27;1.80;55.20
8459;DHT22;4266;48.816;9.154;2022-12-18T13:41:52;1.80;55.70
8459;DHT22;4266;48.816;9.154;2022-12-18T13:44:24;1.80;55.80
8459;DHT22;4266;48.816;9.154;2022-12-18T13:46:50;1.80;55.80
8459;DHT22;4266;48.816;9.154;2022-12-18T13:49:24;1.50;56.00
8459;DHT22;4266;48.816;9.154;2022-12-18T13:51:50;1.60;56.30
8459;DHT22;4266;48.816;9.154;2022-12-18T13:54:35;0.80;57.00
8459;DHT22;4266;48.816;9.154;2022-12-18T13:57:00;0.80;56.70
8459;DHT22;4266;48.816;9.154;2022-12-18T13:59:32;0.70;57.30
8459;DHT22;4266;48.816;9.154;2022-12-18T14:01:55;0.60;57.80
8459;DHT22;4266;48.816;9.154;2022-12-18T14:04:22;0.50;57.90
8459;DHT22;4266;48.816;9.154;2022-12-18T14:06:46;0.40;58.40
8459;DHT22;4266;48.816;9.154;2022-12-18T14:09:16;0.40;58.90
8459;DHT22;4266;48.816;9.154;2022-12-18T14:11:45;0.40;59.10
8459;DHT22;4266;48.816;9.154;2022-12-18T14:14:07;-0.20;59.70
8459;DHT22;4266;48.816;9.154;2022-12-18T14:16:33;-0.30;60.50
8459;DHT22;4266;48.816;9.154;2022-12-18T14:18:58;-0.40;61.70
8459;DHT22;4266;48.816;9.154;2022-12-18T14:21:26;-0.50;62.30
8459;DHT22;4266;48.816;9.154;2022-12-18T14:24:12;-0.80;63.80
8459;DHT22;4266;48.816;9.154;2022-12-18T14:26:33;-0.80;66.70
8459;DHT22;4266;48.816;9.154;2022-12-18T14:29:00;-0.80;66.60
8459;DHT22;4266;48.816;9.154;2022-12-18T14:31:25;-0.80;67.00
8459;DHT22;4266;48.816;9.154;2022-12-18T14:33:50;-1.00;68.10
8459;DHT22;4266;48.816;9.154;2022-12-18T14:36:18;-1.20;70.40
8459;DHT22;4266;48.816;9.154;2022-12-18T14:38:43;-1.20;72.10
8459;DHT22;4266;48.816;9.154;2022-12-18T14:41:11;-1.20;72.60
8459;DHT22;4266;48.816;9.154;2022-12-18T14:43:38;-1.20;72.50
8459;DHT22;4266;48.816;9.154;2022-12-18T14:46:04;-1.30;73.30
8459;DHT22;4266;48.816;9.154;2022-12-18T14:48:35;-1.30;74.80
8459;DHT22;4266;48.816;9.154;2022-12-18T14:51:00;-1.40;74.70
8459;DHT22;4266;48.816;9.154;2022-12-18T14:53:43;-1.40;75.30
8459;DHT22;4266;48.816;9.154;2022-12-18T14:56:16;-1.60;76.30
8459;DHT22;4266;48.816;9.154;2022-12-18T14:58:50;-1.70;77.50
8459;DHT22;4266;48.816;9.154;2022-12-18T15:01:19;-1.80;78.70
8459;DHT22;4266;48.816;9.154;2022-12-18T15:03:44;-1.90;80.00
8459;DHT22;4266;48.816;9.154;2022-12-18T15:06:18;-2.00;80.90
8459;DHT22;4266;48.816;9.154;2022-12-18T15:08:43;-2.00;81.80
8459;DHT22;4266;48.816;9.154;2022-12-18T15:11:25;-2.10;82.50
8459;DHT22;4266;48.816;9.154;2022-12-18T15:13:50;-2.10;83.80
8459;DHT22;4266;48.816;9.154;2022-12-18T15:16:16;-2.40;85.10
8459;DHT22;4266;48.816;9.154;2022-12-18T15:18:42;-2.40;86.30
8459;DHT22;4266;48.816;9.154;2022-12-18T15:21:09;-2.50;87.40
8459;DHT22;4266;48.816;9.154;2022-12-18T15:23:48;-2.50;88.60
8459;DHT22;4266;48.816;9.154;2022-12-18T15:26:13;-2.50;89.30
8459;DHT22;4266;48.816;9.154;2022-12-18T15:28:46;-2.50;89.90
8459;DHT22;4266;48.816;9.154;2022-12-18T15:31:34;-2.50;90.20
8459;DHT22;4266;48.816;9.154;2022-12-18T15:34:19;-2.60;90.50
8459;DHT22;4266;48.816;9.154;2022-12-18T15:36:44;-2.60;90.70
8459;DHT22;4266;48.816;9.154;2022-12-18T15:39:10;-2.70;91.10
8459;DHT22;4266;48.816;9.154;2022-12-18T15:41:35;-2.60;91.10
8459;DHT22;4266;48.816;9.154;2022-12-18T15:44:01;-2.70;91.20
8459;DHT22;4266;48.816;9.154;2022-12-18T15:46:27;-2.80;91.40
8459;DHT22;4266;48.816;9.154;2022-12-18T15:48:54;-2.80;91.60
8459;DHT22;4266;48.816;9.154;2022-12-18T15:51:20;-2.80;91.70
8459;DHT22;4266;48.816;9.154;2022-12-18T15:53:45;-2.90;91.50
8459;DHT22;4266;48.816;9.154;2022-12-18T15:56:11;-2.90;91.60
8459;DHT22;4266;48.816;9.154;2022-12-18T15:58:42;-2.90;91.80
8459;DHT22;4266;48.816;9.154;2022-12-18T16:01:09;-3.00;91.90
8459;DHT22;4266;48.816;9.154;2022-12-18T16:03:34;-3.00;92.20
8459;DHT22;4266;48.816;9.154;2022-12-18T16:06:00;-3.00;92.10
8459;DHT22;4266;48.816;9.154;2022-12-18T16:08:26;-3.00;92.10
8459;DHT22;4266;48.816;9.154;2022-12-18T16:10:52;-3.00;92.10
8459;DHT22;4266;48.816;9.154;2022-12-18T16:13:18;-3.00;92.00
8459;DHT22;4266;48.816;9.154;2022-12-18T16:15:43;-2.90;92.00
8459;DHT22;4266;48.816;9.154;2022-12-18T16:18:10;-3.00;91.90
8459;DHT22;4266;48.816;9.154;2022-12-18T16:20:35;-3.00;91.80
8459;DHT22;4266;48.816;9.154;2022-12-18T16:23:01;-2.90;91.80
8459;DHT22;4266;48.816;9.154;2022-12-18T16:25:28;-3.00;91.80
8459;DHT22;4266;48.816;9.154;2022-12-18T16:27:54;-2.90;91.90
8459;DHT22;4266;48.816;9.154;2022-12-18T16:30:20;-3.00;91.90
8459;DHT22;4266;48.816;9.154;2022-12-18T16:32:45;-3.00;92.00
8459;DHT22;4266;48.816;9.154;2022-12-18T16:35:12;-3.00;92.20
8459;DHT22;4266;48.816;9.154;2022-12-18T16:37:37;-3.00;92.10